Portada
METAR-TAF:

METAR-TAF

Aeroports :

Phuket, Tailàndia

latitud: 08-07N, longitud: 098-19E, altitud: 6 m

Observació

L'informe es va fer fa 18 minuts, a les 22:30 UTC
Vent 4 kt amb direcció variable
Temperatura 25°C
Humitat 79%
Pressió 1010 hPa
Visibilitat: 9000 m
Escasses núvols a una alçada de 2000 ft

METAR: VTSP 112230Z VRB04KT 9000 FEW020 25/21 Q1010 NOSIG

Hora: 05:48 (22:48 UTC)

Pronòstic

L'informe es va fer fa 5 hores i 48 minuts, a les 17:00 UTC
Pronòstic vàlid del 11 a les 18 UTC al 12 a les 24 UTC
Vent kt del Nord
Visibilitat 10 km o més
Escasses núvols a una alçada de 2000 ft
Evolucionant progressivament
l' 11 a les 20 UTC al 11 a les 22 UTC
Vent 8 kt del Est
Evolucionant progressivament
l' 12 a les 07 UTC al 12 a les 09 UTC
Vent 8 kt del Oest/Nord-Oest
Evolucionant progressivament
l' 12 a les 12 UTC al 12 a les 14 UTC
Vent kt del Nord

TAF: VTSP 111700Z 1118/1224 00000KT 9999 FEW020 BECMG 1120/1122 08008KT BECMG 1207/1209 30008KT BECMG 1212/1214 00000KT

Observacions i pronòstics meteorològics de més de 4000 aeroports (METAR i TAF).

Les estacions disponibles són els punts grocs i vermells al mapa.

Posi el ratolí al punt desitjat per veure el nom de l'estació.

Feu clic per veure les observacions i els pronòstics meteorològics.

Per canviar el mapa: feu clic els botons verds amb una creu de color negre per apropar; al botó verd amb un guió per allunyar la imatge; o en les fletxes verdes per a mapes adjacents.


METAR-TAF: